Terminal Aerodrome Forecast
Issued by NWS Binghamton, NY

Home | Current Version | Previous Version | Text Only | Print | Product List | Glossary On
Versions: 1 2 3 4 5 6 7 8 9 10 11 12 13 14 15 16 17 18 19 20 21 22
824
FTUS41 KBGM 130301 AAB
TAFBGM
TAF AMD
KBGM 130301Z 1303/1324 21010KT P6SM OVC060
      TEMPO 1303/1306 2SM -SHSN OVC025
     FM130600 30010G20KT 3SM -SHSN OVC025
      TEMPO 1306/1309 1SM -SHSN BLSN OVC015
     FM131800 31015G25KT P6SM OVC050=

USA.gov is the U.S. government's official web portal to all federal, state and local government web resources and services.